Time;durP1;ratioP1;P1;durP2;ratioP2;P2;SDS_P1;SDS_P2;PMS_P1;PMS_P2;Temp;Humidity;BMP_temperature;BMP_pressure;BME280_temperature;BME280_humidity;BME280_pressure;Samples;Min_cycle;Max_cycle;Signal;HPM_P1;HPM_P2
2023/02/23 00:01:36;;;;;;;18.25;11.23;;;6.90;99.90;;;;;;5037348;28;20021;-61
2023/02/23 00:04:02;;;;;;;19.77;12.38;;;6.90;99.90;;;;;;5035737;28;20045;-61
2023/02/23 00:06:30;;;;;;;18.75;12.73;;;6.90;99.90;;;;;;5038650;28;20065;-61
2023/02/23 00:08:57;;;;;;;17.88;11.65;;;6.90;99.90;;;;;;5042457;28;20607;-62
2023/02/23 00:11:22;;;;;;;18.95;11.00;;;6.80;99.90;;;;;;5039471;28;20025;-61
2023/02/23 00:13:49;;;;;;;23.80;13.05;;;6.80;99.90;;;;;;5041075;28;20025;-61
2023/02/23 00:16:23;;;;;;;16.90;11.15;;;6.80;99.90;;;;;;5041217;28;20051;-62
2023/02/23 00:18:53;;;;;;;21.85;11.98;;;6.80;99.90;;;;;;5035887;28;20527;-60
2023/02/23 00:21:22;;;;;;;18.83;11.63;;;6.80;99.90;;;;;;5041151;28;20035;-60
2023/02/23 00:23:50;;;;;;;21.92;11.98;;;6.80;99.90;;;;;;5040003;28;20094;-61
2023/02/23 00:26:19;;;;;;;17.50;11.48;;;6.70;99.90;;;;;;5040654;28;20033;-61
2023/02/23 00:28:46;;;;;;;20.13;13.05;;;6.70;99.90;;;;;;5037096;28;20029;-61
2023/02/23 00:31:12;;;;;;;17.95;12.52;;;6.70;99.90;;;;;;5035493;28;20021;-61
2023/02/23 00:33:40;;;;;;;18.45;11.95;;;6.60;99.90;;;;;;5032472;28;20083;-62
2023/02/23 00:36:12;;;;;;;20.73;11.95;;;6.60;99.90;;;;;;5028192;28;20087;-60
2023/02/23 00:38:39;;;;;;;19.27;12.45;;;6.60;99.90;;;;;;5038013;28;20207;-62
2023/02/23 00:41:10;;;;;;;19.15;12.63;;;6.60;99.90;;;;;;5038700;28;20503;-61
2023/02/23 00:43:37;;;;;;;19.23;11.93;;;6.60;99.90;;;;;;5038074;28;20071;-61
2023/02/23 00:46:04;;;;;;;21.85;13.15;;;6.50;99.90;;;;;;5027785;28;20369;-61
2023/02/23 00:48:34;;;;;;;16.90;11.45;;;6.50;99.90;;;;;;5035173;28;20029;-61
2023/02/23 00:51:01;;;;;;;21.52;12.57;;;6.50;99.90;;;;;;5036265;28;20030;-61
2023/02/23 00:53:27;;;;;;;17.92;12.48;;;6.40;99.90;;;;;;5038017;28;20026;-61
2023/02/23 00:55:55;;;;;;;22.40;12.25;;;6.40;99.90;;;;;;5040864;28;20017;-58
2023/02/23 00:58:21;;;;;;;18.17;12.60;;;6.40;99.90;;;;;;5038696;28;20033;-60
2023/02/23 01:00:47;;;;;;;20.70;12.00;;;6.40;99.90;;;;;;5037926;28;20372;-61
2023/02/23 01:03:12;;;;;;;19.70;12.27;;;6.40;99.90;;;;;;5035515;28;20033;-59
2023/02/23 01:05:38;;;;;;;19.90;12.52;;;6.40;99.90;;;;;;5042576;28;20029;-60
2023/02/23 01:08:08;;;;;;;19.33;12.25;;;6.30;99.90;;;;;;5039151;28;20035;-61
2023/02/23 01:10:38;;;;;;;19.95;12.25;;;6.30;99.90;;;;;;5036567;28;20057;-61
2023/02/23 01:13:04;;;;;;;20.73;11.75;;;6.30;99.90;;;;;;5042510;28;20488;-61
2023/02/23 01:15:31;;;;;;;21.00;11.90;;;6.30;99.90;;;;;;5036031;28;20079;-60
2023/02/23 01:17:57;;;;;;;19.00;12.70;;;6.20;99.90;;;;;;5039959;28;20023;-61
2023/02/23 01:20:23;;;;;;;15.75;11.20;;;6.20;99.90;;;;;;5035725;28;20021;-62
2023/02/23 01:22:50;;;;;;;18.63;12.60;;;6.20;99.90;;;;;;5043085;28;20514;-61
2023/02/23 01:25:17;;;;;;;16.90;11.55;;;6.20;99.90;;;;;;5041125;28;20095;-59
2023/02/23 01:27:43;;;;;;;20.48;12.57;;;6.20;99.90;;;;;;5042534;28;20022;-60
2023/02/23 01:30:13;;;;;;;18.90;12.45;;;6.20;99.90;;;;;;5042999;28;20025;-62
2023/02/23 01:32:40;;;;;;;23.30;13.27;;;6.20;99.90;;;;;;5039657;28;20032;-62
2023/02/23 01:35:08;;;;;;;16.13;10.75;;;6.20;99.90;;;;;;5038229;28;20033;-61
2023/02/23 01:37:35;;;;;;;23.63;13.43;;;6.20;99.90;;;;;;5041896;28;20024;-61
2023/02/23 01:40:13;;;;;;;18.08;12.95;;;6.20;99.90;;;;;;5043700;28;20017;-61
2023/02/23 01:42:40;;;;;;;21.83;12.52;;;6.20;99.90;;;;;;5042824;28;20063;-61
2023/02/23 01:45:34;;;;;;;21.48;13.93;;;6.10;99.90;;;;;;5038539;28;20060;-61
2023/02/23 01:48:11;;;;;;;19.88;12.88;;;6.20;99.90;;;;;;5035747;28;20578;-60
2023/02/23 01:50:40;;;;;;;20.17;12.65;;;6.20;99.90;;;;;;5041429;28;20097;-59
2023/02/23 01:53:06;;;;;;;20.70;12.57;;;6.10;99.90;;;;;;5033579;28;20121;-61
2023/02/23 01:55:31;;;;;;;21.83;12.82;;;6.10;99.90;;;;;;5042004;28;20502;-61
2023/02/23 01:58:04;;;;;;;17.40;12.60;;;6.10;99.90;;;;;;5037990;28;20392;-62
2023/02/23 02:00:31;;;;;;;21.92;13.45;;;6.10;99.90;;;;;;5036653;28;20040;-61
2023/02/23 02:03:00;;;;;;;20.50;14.38;;;6.10;99.90;;;;;;5021016;28;20025;-62
2023/02/23 02:05:27;;;;;;;21.38;13.88;;;6.10;99.90;;;;;;5039670;28;20025;-61
2023/02/23 02:07:57;;;;;;;22.52;12.57;;;6.10;99.90;;;;;;5040977;28;20147;-61
2023/02/23 02:10:39;;;;;;;22.70;13.65;;;6.10;99.90;;;;;;5036209;28;20052;-61
2023/02/23 02:13:07;;;;;;;17.95;11.82;;;6.10;99.90;;;;;;5039308;28;20399;-58
2023/02/23 02:15:39;;;;;;;21.60;13.88;;;6.10;99.90;;;;;;5037903;28;20442;-61
2023/02/23 02:18:31;;;;;;;20.63;13.30;;;6.00;99.90;;;;;;5042513;28;20380;-61
2023/02/23 02:21:05;;;;;;;19.52;13.13;;;6.00;99.90;;;;;;5032218;28;20033;-60
2023/02/23 02:23:40;;;;;;;24.10;13.65;;;6.00;99.90;;;;;;5037723;28;20121;-61
2023/02/23 02:26:20;;;;;;;21.75;13.93;;;6.00;99.90;;;;;;5041368;28;20043;-60
2023/02/23 02:28:58;;;;;;;22.00;13.30;;;6.00;99.90;;;;;;5039419;28;20044;-62
2023/02/23 02:31:49;;;;;;;20.63;13.23;;;6.00;99.90;;;;;;5044676;28;20052;-61
2023/02/23 02:34:45;;;;;;;22.25;13.70;;;5.90;99.90;;;;;;5034183;28;20541;-60
2023/02/23 02:37:10;;;;;;;22.55;14.02;;;5.90;99.90;;;;;;5031840;28;20116;-60
2023/02/23 02:39:36;;;;;;;24.73;14.02;;;5.90;99.90;;;;;;5040168;28;20571;-59
2023/02/23 02:42:19;;;;;;;24.73;13.13;;;5.90;99.90;;;;;;5043552;28;20337;-61
2023/02/23 02:45:06;;;;;;;20.60;13.43;;;5.90;99.90;;;;;;5037521;28;20382;-61
2023/02/23 02:47:51;;;;;;;17.25;12.80;;;5.90;99.90;;;;;;5033966;28;20072;-61
2023/02/23 02:50:29;;;;;;;20.50;12.15;;;5.80;99.90;;;;;;5037884;28;20063;-61
2023/02/23 02:53:00;;;;;;;19.17;12.93;;;5.80;99.90;;;;;;5037537;28;20541;-61
2023/02/23 02:55:33;;;;;;;21.20;12.68;;;5.80;99.90;;;;;;5042626;28;20037;-60
2023/02/23 02:58:06;;;;;;;21.98;14.43;;;5.80;99.90;;;;;;5039746;28;20221;-59
2023/02/23 04:18:56;;;;;;;27.55;15.82;;;6.30;99.90;;;;;;5040306;28;20063;-61
2023/02/23 04:21:22;;;;;;;27.33;16.88;;;6.30;99.90;;;;;;5041132;28;20032;-61
2023/02/23 04:23:48;;;;;;;25.48;16.13;;;6.30;99.90;;;;;;5039167;28;20013;-62
2023/02/23 04:26:14;;;;;;;24.40;15.45;;;6.30;99.90;;;;;;5040836;28;20408;-59
2023/02/23 04:28:39;;;;;;;24.40;14.32;;;6.30;99.90;;;;;;5038689;28;20021;-61
2023/02/23 04:31:05;;;;;;;28.85;15.98;;;6.30;99.90;;;;;;5039178;28;20079;-60
2023/02/23 04:33:30;;;;;;;25.90;15.15;;;6.40;99.90;;;;;;5042254;28;20033;-59
2023/02/23 04:35:56;;;;;;;23.95;15.15;;;6.30;99.90;;;;;;5029992;28;20037;-60
2023/02/23 04:38:22;;;;;;;25.95;15.32;;;6.40;99.90;;;;;;5033550;28;20515;-60
2023/02/23 04:40:48;;;;;;;23.10;14.75;;;6.40;99.90;;;;;;5036903;28;20017;-60
2023/02/23 04:43:14;;;;;;;28.80;16.52;;;6.40;99.90;;;;;;5033867;28;20195;-60
2023/02/23 04:45:40;;;;;;;28.85;16.67;;;6.40;99.90;;;;;;5031521;28;20048;-58
2023/02/23 04:48:06;;;;;;;26.27;16.13;;;6.40;99.90;;;;;;5035520;28;20026;-60
2023/02/23 04:50:32;;;;;;;25.63;15.95;;;6.40;99.90;;;;;;5040151;28;20040;-58
2023/02/23 04:52:57;;;;;;;27.55;15.85;;;6.40;99.90;;;;;;5030380;28;20387;-61
2023/02/23 04:55:24;;;;;;;23.83;14.70;;;6.40;99.90;;;;;;5041694;28;20048;-61
2023/02/23 04:57:51;;;;;;;24.23;15.00;;;6.40;99.90;;;;;;5040268;28;20504;-56
2023/02/23 05:00:18;;;;;;;24.95;15.52;;;6.50;99.90;;;;;;5038288;28;20499;-61
2023/02/23 05:02:44;;;;;;;24.92;15.10;;;6.40;99.90;;;;;;5043442;28;20491;-60
2023/02/23 05:05:11;;;;;;;24.60;15.45;;;6.50;99.90;;;;;;5044430;28;20032;-61
2023/02/23 05:07:36;;;;;;;27.80;15.27;;;6.50;99.90;;;;;;5035524;28;20021;-59
2023/02/23 05:10:04;;;;;;;24.95;15.00;;;6.50;99.90;;;;;;5055792;28;20074;-59
2023/02/23 05:12:30;;;;;;;26.77;15.95;;;6.50;99.90;;;;;;5043365;28;20583;-60
2023/02/23 05:14:56;;;;;;;24.17;15.90;;;6.50;99.90;;;;;;5040925;28;20021;-60
2023/02/23 05:17:22;;;;;;;23.80;14.50;;;6.50;99.90;;;;;;5038381;28;20505;-61
2023/02/23 05:19:47;;;;;;;32.88;16.48;;;6.50;99.90;;;;;;5042017;28;20022;-59
2023/02/23 05:22:14;;;;;;;23.50;14.63;;;6.50;99.90;;;;;;5037015;28;20100;-60
2023/02/23 05:24:40;;;;;;;24.38;15.52;;;6.50;99.90;;;;;;5043329;28;20021;-60
2023/02/23 05:27:07;;;;;;;32.03;17.30;;;6.50;99.90;;;;;;5038865;28;20430;-61
2023/02/23 05:29:33;;;;;;;31.45;19.90;;;6.50;99.90;;;;;;5044576;28;20560;-57
2023/02/23 05:31:58;;;;;;;38.17;19.13;;;6.50;99.90;;;;;;5044492;28;20028;-61
2023/02/23 05:34:24;;;;;;;32.15;17.30;;;6.60;99.90;;;;;;5031316;28;20091;-61
2023/02/23 05:36:49;;;;;;;32.42;18.05;;;6.60;99.90;;;;;;5039788;28;20018;-57
2023/02/23 05:39:18;;;;;;;38.70;19.80;;;6.60;99.90;;;;;;5040413;28;20096;-61
2023/02/23 05:41:44;;;;;;;36.55;19.40;;;6.60;99.90;;;;;;5047751;28;20614;-60
2023/02/23 05:44:09;;;;;;;35.67;19.80;;;6.60;99.90;;;;;;5039926;28;20068;-59
2023/02/23 05:46:35;;;;;;;36.90;20.83;;;6.60;99.90;;;;;;5035063;28;20034;-59
2023/02/23 05:49:01;;;;;;;42.22;22.88;;;6.60;99.90;;;;;;5043969;28;20099;-60
2023/02/23 05:51:28;;;;;;;43.17;23.50;;;6.70;99.90;;;;;;5038538;28;20458;-61
2023/02/23 05:53:54;;;;;;;44.05;21.88;;;6.70;99.90;;;;;;5046124;28;20116;-61
2023/02/23 05:56:21;;;;;;;45.50;23.23;;;6.70;99.90;;;;;;5039928;28;20311;-62
2023/02/23 05:58:55;;;;;;;44.70;23.38;;;6.70;99.90;;;;;;5046839;28;20732;-62
2023/02/23 06:01:21;;;;;;;44.67;23.95;;;6.80;99.90;;;;;;5039961;28;20476;-61
2023/02/23 06:03:47;;;;;;;48.88;22.63;;;6.70;99.90;;;;;;5055793;28;20033;-61
2023/02/23 06:06:13;;;;;;;40.45;21.88;;;6.70;99.90;;;;;;5043655;28;20029;-58
2023/02/23 06:08:39;;;;;;;50.08;24.95;;;6.80;99.90;;;;;;5034058;28;20307;-61
2023/02/23 06:11:05;;;;;;;53.08;24.63;;;6.80;99.90;;;;;;5042454;28;20060;-61
2023/02/23 06:13:31;;;;;;;44.05;23.23;;;6.80;99.90;;;;;;5034209;28;20033;-60
2023/02/23 06:15:58;;;;;;;54.25;24.27;;;6.70;99.90;;;;;;5056737;28;20069;-60
2023/02/23 06:18:24;;;;;;;53.25;25.10;;;6.80;99.90;;;;;;5038328;28;20017;-63
2023/02/23 06:20:50;;;;;;;48.60;26.33;;;6.80;99.90;;;;;;5026403;28;20051;-60
2023/02/23 06:23:15;;;;;;;47.72;24.83;;;6.80;99.90;;;;;;5041469;28;20487;-60
2023/02/23 06:25:42;;;;;;;46.83;24.38;;;6.80;99.90;;;;;;5039305;28;20551;-60
2023/02/23 06:28:09;;;;;;;49.35;25.35;;;6.80;99.90;;;;;;5039581;28;20095;-61
2023/02/23 06:30:36;;;;;;;49.58;23.00;;;6.80;99.90;;;;;;5040230;28;20030;-60
2023/02/23 06:33:01;;;;;;;52.83;25.50;;;6.80;99.90;;;;;;5044954;28;20037;-60
2023/02/23 06:35:27;;;;;;;49.80;26.58;;;6.80;99.90;;;;;;5036336;28;20040;-61
2023/02/23 06:37:53;;;;;;;51.53;25.40;;;6.80;99.90;;;;;;5046585;28;20093;-61
2023/02/23 06:40:19;;;;;;;55.80;25.48;;;6.80;99.90;;;;;;5041190;28;20420;-61
2023/02/23 06:42:45;;;;;;;52.58;24.85;;;6.80;99.90;;;;;;5045475;28;20025;-60
2023/02/23 06:45:12;;;;;;;64.57;27.55;;;6.80;99.90;;;;;;5041558;28;20033;-61
2023/02/23 06:47:38;;;;;;;48.03;25.05;;;6.80;99.90;;;;;;5039109;28;20056;-60
2023/02/23 06:50:05;;;;;;;47.03;24.77;;;6.80;99.90;;;;;;5041608;28;20518;-60
2023/02/23 06:52:31;;;;;;;55.67;25.40;;;6.80;99.90;;;;;;5040434;28;20032;-60
2023/02/23 06:54:57;;;;;;;50.40;23.98;;;6.80;99.90;;;;;;5039818;28;20021;-61
2023/02/23 06:57:22;;;;;;;55.17;25.42;;;6.70;99.90;;;;;;5033432;28;20395;-61
2023/02/23 06:59:48;;;;;;;52.60;24.65;;;6.80;99.90;;;;;;5041178;28;20398;-61
2023/02/23 07:02:14;;;;;;;60.13;25.48;;;6.80;99.90;;;;;;5038760;28;20195;-61
2023/02/23 07:04:39;;;;;;;48.58;24.15;;;6.80;99.90;;;;;;5036855;28;20151;-58
2023/02/23 07:07:05;;;;;;;53.70;27.15;;;6.80;99.90;;;;;;5042273;28;20474;-61
2023/02/23 07:09:30;;;;;;;56.13;25.98;;;6.80;99.90;;;;;;5031122;28;20040;-61
2023/02/23 07:11:56;;;;;;;53.97;25.30;;;6.80;99.90;;;;;;5035346;28;20249;-61
2023/02/23 07:14:22;;;;;;;62.72;26.98;;;6.80;99.90;;;;;;5032001;28;20067;-61
2023/02/23 07:16:47;;;;;;;65.05;26.15;;;6.90;99.90;;;;;;5035770;28;20025;-60
2023/02/23 07:19:13;;;;;;;58.85;25.67;;;6.90;99.90;;;;;;5039622;28;20057;-61
2023/02/23 07:21:38;;;;;;;60.53;27.60;;;6.80;99.90;;;;;;5039301;28;20053;-60
2023/02/23 07:24:04;;;;;;;60.97;26.77;;;6.90;99.90;;;;;;5041472;28;20119;-61
2023/02/23 07:26:32;;;;;;;58.20;28.20;;;6.90;99.90;;;;;;5039886;28;20021;-61
2023/02/23 07:28:58;;;;;;;71.90;29.38;;;6.90;99.90;;;;;;5041647;28;20107;-61
2023/02/23 07:31:25;;;;;;;64.93;30.65;;;6.90;99.90;;;;;;5041352;28;20037;-60
2023/02/23 07:33:53;;;;;;;69.25;27.75;;;6.90;99.90;;;;;;5031886;28;20047;-61
2023/02/23 07:36:19;;;;;;;79.68;32.92;;;7.00;99.90;;;;;;5054920;28;20520;-62
2023/02/23 07:38:45;;;;;;;82.53;33.13;;;6.90;99.90;;;;;;5034062;28;20372;-61
2023/02/23 07:41:11;;;;;;;74.95;30.65;;;6.90;99.90;;;;;;5037194;28;20021;-59
2023/02/23 07:43:36;;;;;;;78.38;32.42;;;6.90;99.90;;;;;;5042965;28;20108;-60
2023/02/23 07:46:02;;;;;;;80.80;33.15;;;6.90;99.90;;;;;;5032167;28;20108;-60
2023/02/23 07:48:27;;;;;;;74.65;31.73;;;7.00;99.90;;;;;;5043832;28;20511;-61
2023/02/23 07:50:53;;;;;;;79.13;32.05;;;7.00;99.90;;;;;;5032738;28;20026;-60
2023/02/23 07:53:19;;;;;;;74.25;31.40;;;7.00;99.90;;;;;;5043455;28;20033;-61
2023/02/23 07:55:45;;;;;;;79.85;33.45;;;7.00;99.90;;;;;;5038346;28;20086;-62
2023/02/23 07:58:12;;;;;;;72.10;32.80;;;7.00;99.90;;;;;;5036676;28;20052;-59
2023/02/23 08:00:38;;;;;;;75.70;31.23;;;7.00;99.90;;;;;;5038392;28;20017;-61
2023/02/23 08:03:05;;;;;;;80.40;32.00;;;7.00;99.90;;;;;;5030822;28;20055;-61
2023/02/23 08:05:31;;;;;;;78.30;31.58;;;7.00;99.90;;;;;;5050563;28;20113;-61
2023/02/23 08:07:57;;;;;;;71.15;30.23;;;7.10;99.90;;;;;;5040146;28;20178;-61
2023/02/23 08:10:23;;;;;;;74.13;30.70;;;7.10;99.90;;;;;;5043583;28;20530;-61
2023/02/23 08:12:48;;;;;;;62.42;28.88;;;7.10;99.90;;;;;;5037843;28;20143;-60
2023/02/23 08:15:14;;;;;;;71.65;32.13;;;7.00;99.90;;;;;;5043331;28;20104;-61
2023/02/23 08:17:40;;;;;;;75.63;31.25;;;7.10;99.90;;;;;;5038577;28;20368;-59
2023/02/23 08:20:06;;;;;;;68.35;29.70;;;7.00;99.90;;;;;;5037215;28;20029;-61
2023/02/23 08:22:33;;;;;;;61.78;30.13;;;7.10;99.90;;;;;;5043816;28;20507;-61
2023/02/23 08:24:58;;;;;;;60.28;28.02;;;7.10;99.90;;;;;;5037519;28;20017;-61
2023/02/23 08:27:24;;;;;;;59.75;26.05;;;7.10;99.90;;;;;;5044226;28;20047;-57
2023/02/23 08:29:53;;;;;;;64.18;28.27;;;7.10;99.90;;;;;;5033002;28;20483;-61
2023/02/23 08:32:19;;;;;;;57.42;25.75;;;7.10;99.90;;;;;;5042258;28;20055;-58
2023/02/23 08:34:44;;;;;;;63.20;27.90;;;7.20;99.90;;;;;;5033786;28;20038;-61
2023/02/23 08:37:10;;;;;;;57.70;28.95;;;7.20;99.90;;;;;;5040465;28;20053;-61
2023/02/23 08:39:36;;;;;;;52.33;26.35;;;7.10;99.90;;;;;;5042237;28;20041;-60
2023/02/23 08:42:02;;;;;;;59.88;27.98;;;7.10;99.90;;;;;;5047005;28;20519;-60
2023/02/23 08:44:28;;;;;;;64.43;29.02;;;7.10;99.90;;;;;;5038604;28;20036;-59
2023/02/23 08:46:54;;;;;;;59.17;28.23;;;7.20;99.90;;;;;;5042523;28;20025;-61
2023/02/23 08:49:21;;;;;;;60.03;27.40;;;7.20;99.90;;;;;;5037117;28;20552;-60
2023/02/23 08:51:47;;;;;;;56.78;25.67;;;7.20;99.90;;;;;;5041631;28;20033;-61
2023/02/23 08:54:15;;;;;;;54.95;27.02;;;7.20;99.90;;;;;;5044327;28;20032;-62
2023/02/23 08:56:41;;;;;;;60.90;28.00;;;7.20;99.90;;;;;;5041535;28;20033;-62
2023/02/23 08:59:07;;;;;;;55.72;27.50;;;7.20;99.90;;;;;;5045954;28;20025;-60
2023/02/23 09:01:33;;;;;;;61.28;30.00;;;7.20;99.90;;;;;;5040999;28;20499;-61
2023/02/23 09:03:59;;;;;;;67.70;29.35;;;7.20;99.90;;;;;;5043741;28;20043;-62
2023/02/23 09:06:26;;;;;;;62.58;30.23;;;7.20;99.90;;;;;;5041852;28;20409;-62
2023/02/23 09:08:54;;;;;;;62.20;30.48;;;7.30;99.90;;;;;;5044168;28;20020;-61
2023/02/23 09:11:20;;;;;;;60.70;30.02;;;7.20;99.90;;;;;;5043911;28;20045;-61
2023/02/23 09:13:45;;;;;;;70.05;29.65;;;7.20;99.90;;;;;;5044442;28;20024;-59
2023/02/23 09:16:12;;;;;;;71.25;32.15;;;7.20;99.90;;;;;;5046913;28;20036;-61
2023/02/23 09:18:38;;;;;;;75.82;34.63;;;7.20;99.90;;;;;;5057543;28;20130;-60
2023/02/23 09:21:06;;;;;;;74.15;34.42;;;7.10;99.90;;;;;;5043558;28;20318;-61
2023/02/23 09:23:37;;;;;;;81.78;34.70;;;7.10;99.90;;;;;;5039799;28;20021;-61
2023/02/23 09:26:07;;;;;;;83.93;34.60;;;7.10;99.90;;;;;;5038872;28;20029;-61
2023/02/23 09:28:34;;;;;;;90.88;37.38;;;7.10;99.90;;;;;;5032971;28;20380;-59
2023/02/23 09:31:12;;;;;;;101.55;39.63;;;7.00;99.90;;;;;;5036545;28;20028;-59
2023/02/23 09:33:38;;;;;;;109.07;42.80;;;7.00;99.90;;;;;;5034626;28;20043;-59
2023/02/23 09:36:11;;;;;;;111.05;43.95;;;6.90;99.90;;;;;;5034149;28;20033;-58
2023/02/23 09:38:38;;;;;;;106.78;39.80;;;6.90;99.90;;;;;;5037644;28;20407;-58
2023/02/23 09:41:24;;;;;;;109.47;41.88;;;6.90;99.90;;;;;;5030606;28;20116;-59
2023/02/23 09:44:20;;;;;;;100.78;38.40;;;6.90;99.90;;;;;;5028586;28;20021;-62
2023/02/23 09:46:53;;;;;;;110.28;42.00;;;6.90;99.90;;;;;;5029384;28;20036;-62
2023/02/23 09:49:24;;;;;;;107.50;42.97;;;6.90;99.90;;;;;;5030714;28;20064;-62
2023/02/23 09:51:56;;;;;;;99.95;37.20;;;6.90;99.90;;;;;;5031895;28;20036;-62
2023/02/23 09:54:29;;;;;;;105.45;39.90;;;6.90;99.90;;;;;;5032397;28;20400;-60
2023/02/23 09:56:57;;;;;;;95.10;40.25;;;6.90;99.90;;;;;;5033373;28;20024;-62
2023/02/23 09:59:24;;;;;;;96.32;38.65;;;6.90;99.90;;;;;;5033912;28;20025;-62
2023/02/23 10:02:29;;;;;;;98.05;40.58;;;7.00;99.90;;;;;;5032174;28;20021;-60
2023/02/23 10:05:01;;;;;;;103.95;39.75;;;7.10;99.90;;;;;;5033273;28;20044;-62
2023/02/23 10:07:35;;;;;;;100.13;38.80;;;7.10;99.90;;;;;;5033111;28;20041;-62
2023/02/23 10:10:26;;;;;;;99.40;39.78;;;7.10;99.90;;;;;;5033521;28;20021;-61
2023/02/23 10:13:01;;;;;;;83.65;38.60;;;7.20;99.90;;;;;;5032785;28;20060;-61
2023/02/23 10:15:33;;;;;;;90.63;37.17;;;7.10;99.90;;;;;;5033884;28;20064;-61
2023/02/23 10:18:43;;;;;;;80.80;36.30;;;7.10;99.90;;;;;;5035242;28;20021;-61
2023/02/23 10:21:18;;;;;;;95.68;37.22;;;7.10;99.90;;;;;;5034702;28;20112;-62
2023/02/23 10:24:18;;;;;;;79.17;35.13;;;7.10;99.90;;;;;;5037236;28;20013;-62
2023/02/23 10:26:53;;;;;;;81.97;36.72;;;7.10;99.90;;;;;;5033876;28;20026;-60
2023/02/23 10:29:21;;;;;;;85.13;35.42;;;7.10;99.90;;;;;;5033742;28;20525;-61
2023/02/23 10:31:50;;;;;;;85.13;34.75;;;7.20;99.90;;;;;;5036353;28;20029;-60
2023/02/23 10:34:17;;;;;;;87.88;35.65;;;7.20;99.90;;;;;;5034384;28;20550;-62
2023/02/23 10:36:56;;;;;;;94.88;35.25;;;7.10;99.90;;;;;;5034542;28;20038;-60
2023/02/23 10:39:22;;;;;;;82.80;34.33;;;7.10;99.90;;;;;;5034914;28;20021;-61
2023/02/23 10:41:47;;;;;;;84.28;35.97;;;7.10;99.90;;;;;;5045149;28;20020;-62
2023/02/23 10:44:23;;;;;;;80.00;34.83;;;7.10;99.90;;;;;;5040349;28;20443;-62
2023/02/23 10:46:54;;;;;;;71.20;31.85;;;7.20;99.90;;;;;;5055700;28;20017;-61
2023/02/23 10:49:22;;;;;;;85.25;33.95;;;7.20;99.90;;;;;;5039641;28;20037;-59
2023/02/23 10:51:50;;;;;;;78.25;31.30;;;7.30;99.90;;;;;;5041554;28;20033;-61
2023/02/23 10:54:37;;;;;;;76.38;32.53;;;7.20;99.90;;;;;;5040532;28;20053;-60
2023/02/23 10:57:04;;;;;;;;;;;7.30;99.90;;;;;;5030949;28;20423;-60
2023/02/23 10:59:31;;;;;;;73.25;32.70;;;7.30;99.90;;;;;;5040329;28;20020;-61
2023/02/23 11:01:57;;;;;;;75.63;33.08;;;7.30;99.90;;;;;;5040999;28;20025;-59
2023/02/23 11:04:28;;;;;;;74.85;32.05;;;7.30;99.90;;;;;;5039344;28;20037;-60
2023/02/23 11:07:17;;;;;;;72.78;33.28;;;7.30;99.90;;;;;;5028930;28;20028;-59
2023/02/23 11:09:42;;;;;;;72.18;32.00;;;7.30;99.90;;;;;;5032377;28;20039;-60
2023/02/23 11:12:21;;;;;;;74.00;30.35;;;7.20;99.90;;;;;;5040301;28;20399;-59
2023/02/23 11:14:55;;;;;;;72.22;30.30;;;7.30;99.90;;;;;;5041105;28;20036;-61
2023/02/23 11:17:36;;;;;;;74.57;30.45;;;7.20;99.90;;;;;;5036435;28;20484;-59
2023/02/23 11:20:21;;;;;;;64.50;30.23;;;7.20;99.90;;;;;;5036645;28;20057;-56
2023/02/23 11:22:47;;;;;;;68.38;29.60;;;7.30;99.90;;;;;;5044191;28;20140;-62
2023/02/23 11:25:29;;;;;;;56.05;27.77;;;7.30;99.90;;;;;;5037811;28;20104;-61
2023/02/23 11:27:55;;;;;;;64.57;27.85;;;7.30;99.90;;;;;;5032050;28;20025;-60
2023/02/23 11:30:24;;;;;;;64.15;29.80;;;7.30;99.90;;;;;;5033285;28;20033;-61
2023/02/23 11:32:51;;;;;;;67.93;28.65;;;7.30;99.90;;;;;;5042135;28;20067;-59
2023/02/23 11:35:20;;;;;;;55.53;28.67;;;7.40;99.90;;;;;;5033858;28;20037;-62
2023/02/23 11:37:46;;;;;;;60.60;28.15;;;7.40;99.90;;;;;;5037794;28;20430;-60
2023/02/23 11:40:29;;;;;;;70.15;30.15;;;7.50;99.90;;;;;;5041547;28;20021;-61
2023/02/23 11:43:08;;;;;;;68.32;30.50;;;7.60;99.90;;;;;;5040360;28;20040;-62
2023/02/23 11:45:50;;;;;;;66.55;28.50;;;7.60;99.90;;;;;;5038717;28;20021;-63
2023/02/23 11:48:22;;;;;;;63.10;29.65;;;7.60;99.90;;;;;;5043249;28;20391;-62
2023/02/23 11:50:48;;;;;;;65.20;29.35;;;7.70;99.90;;;;;;5037692;28;20021;-63
2023/02/23 11:53:42;;;;;;;67.25;28.45;;;7.70;99.90;;;;;;5041796;28;20082;-61
2023/02/23 11:56:09;;;;;;;69.32;29.38;;;7.80;99.90;;;;;;5033545;28;20496;-62
2023/02/23 11:58:58;;;;;;;66.93;27.75;;;7.80;99.90;;;;;;5045281;28;20308;-61
2023/02/23 12:01:53;;;;;;;64.25;27.85;;;7.80;99.90;;;;;;5037484;28;20563;-62
2023/02/23 12:04:24;;;;;;;66.22;29.35;;;7.80;99.90;;;;;;5031051;28;20029;-60
2023/02/23 12:06:50;;;;;;;63.65;29.05;;;7.80;99.90;;;;;;5027687;28;20507;-60
2023/02/23 12:09:24;;;;;;;63.58;27.90;;;7.80;99.90;;;;;;5040252;28;20592;-61
2023/02/23 12:11:58;;;;;;;69.75;29.88;;;7.90;99.90;;;;;;5029329;28;20357;-59
2023/02/23 12:14:31;;;;;;;65.43;28.75;;;7.90;99.90;;;;;;5039920;28;20079;-63
2023/02/23 12:17:05;;;;;;;64.95;28.40;;;8.00;99.90;;;;;;5038721;28;20115;-61
2023/02/23 12:19:39;;;;;;;66.72;28.80;;;8.00;99.90;;;;;;5039510;28;20021;-58
2023/02/23 12:22:15;;;;;;;67.88;29.65;;;8.00;99.90;;;;;;5041058;28;20067;-62
2023/02/23 12:25:09;;;;;;;66.60;28.92;;;8.00;99.90;;;;;;5038660;28;20040;-61
2023/02/23 12:28:17;;;;;;;58.17;27.58;;;8.00;99.90;;;;;;5034211;28;20064;-61
2023/02/23 12:30:45;;;;;;;;;;;8.00;99.90;;;;;;4983927;28;20061;-59
2023/02/23 12:33:41;;;;;;;62.88;27.88;;;8.00;99.90;;;;;;5037316;28;20314;-59
2023/02/23 12:36:38;;;;;;;57.72;25.83;;;8.00;99.90;;;;;;5035584;28;20051;-62
2023/02/23 12:39:09;;;;;;;56.15;25.50;;;8.00;99.90;;;;;;5034457;28;20026;-62
2023/02/23 12:41:43;;;;;;;63.45;26.88;;;8.00;99.90;;;;;;5028841;28;20040;-62
2023/02/23 12:44:27;;;;;;;56.60;24.92;;;8.00;99.90;;;;;;5027091;28;20384;-62
2023/02/23 12:46:58;;;;;;;57.00;25.45;;;8.00;99.90;;;;;;5028147;28;20025;-62
2023/02/23 12:49:40;;;;;;;59.13;26.58;;;8.00;99.90;;;;;;5028706;28;20492;-62
2023/02/23 12:52:13;;;;;;;56.70;25.10;;;8.00;99.90;;;;;;5027768;28;20028;-62
2023/02/23 12:54:39;;;;;;;59.65;25.30;;;8.00;99.90;;;;;;5027813;28;20399;-62
2023/02/23 12:57:08;;;;;;;62.88;26.13;;;8.00;99.90;;;;;;5028356;28;20025;-61
2023/02/23 13:00:19;;;;;;;53.53;24.83;;;8.00;99.90;;;;;;5028300;28;20048;-63
2023/02/23 13:02:51;;;;;;;56.30;25.23;;;7.80;99.90;;;;;;5044979;28;21513;-62
2023/02/23 13:05:30;;;;;;;54.00;25.30;;;7.90;99.90;;;;;;5029726;28;20025;-60
2023/02/23 13:07:58;;;;;;;52.58;25.10;;;7.90;99.90;;;;;;5026262;28;20159;-62
2023/02/23 13:10:54;;;;;;;56.47;26.80;;;7.90;99.90;;;;;;5029279;28;20022;-62
2023/02/23 13:13:37;;;;;;;55.33;24.80;;;7.90;99.90;;;;;;5029307;28;20344;-62
2023/02/23 13:16:23;;;;;;;55.17;22.63;;;7.90;99.90;;;;;;5028142;28;20483;-61
2023/02/23 13:19:12;;;;;;;44.45;21.85;;;8.00;99.90;;;;;;5033406;28;21040;-61
2023/02/23 13:22:07;;;;;;;49.38;23.52;;;7.90;99.90;;;;;;5032915;28;20398;-60
2023/02/23 13:24:40;;;;;;;51.47;23.02;;;8.00;99.90;;;;;;5032772;28;20041;-62
2023/02/23 13:27:22;;;;;;;52.20;24.08;;;8.00;99.90;;;;;;5033051;28;20499;-60
2023/02/23 13:29:53;;;;;;;48.47;21.48;;;8.00;99.90;;;;;;5032353;28;20383;-58
2023/02/23 13:32:30;;;;;;;45.78;20.27;;;7.90;99.90;;;;;;5030541;28;20495;-62
2023/02/23 13:35:02;;;;;;;48.72;23.25;;;7.90;99.90;;;;;;5028775;28;20029;-62
2023/02/23 13:37:34;;;;;;;47.42;21.95;;;7.90;99.90;;;;;;5032511;28;20103;-59
2023/02/23 13:40:39;;;;;;;52.53;21.40;;;8.00;99.90;;;;;;5030569;28;20017;-62
2023/02/23 13:43:21;;;;;;;43.90;20.75;;;8.00;99.90;;;;;;5029244;28;20029;-62
2023/02/23 13:46:09;;;;;;;41.65;20.30;;;8.00;99.90;;;;;;5031716;28;20068;-60
2023/02/23 13:48:56;;;;;;;45.05;19.88;;;8.00;99.90;;;;;;5031463;28;20032;-62
2023/02/23 13:51:34;;;;;;;40.90;19.63;;;8.00;99.90;;;;;;5030086;28;20184;-62
2023/02/23 13:54:04;;;;;;;48.25;21.13;;;8.00;99.90;;;;;;5030051;28;20598;-61
2023/02/23 13:56:40;;;;;;;44.25;19.98;;;8.00;99.90;;;;;;5031329;28;20132;-62
2023/02/23 13:59:14;;;;;;;42.47;21.45;;;8.00;99.90;;;;;;5032372;28;20536;-62
2023/02/23 14:01:46;;;;;;;40.72;20.10;;;8.10;99.90;;;;;;5035351;28;20026;-62
2023/02/23 14:04:26;;;;;;;41.92;19.13;;;8.00;99.90;;;;;;5031758;28;20029;-62
2023/02/23 14:07:17;;;;;;;46.85;21.10;;;8.00;99.90;;;;;;5047266;28;20486;-63
2023/02/23 14:09:59;;;;;;;46.90;19.85;;;8.00;99.90;;;;;;5031555;28;20494;-60
2023/02/23 14:12:31;;;;;;;41.47;20.10;;;8.00;99.90;;;;;;5030933;28;20072;-60
2023/02/23 14:15:26;;;;;;;45.90;19.35;;;8.00;99.90;;;;;;5031148;28;20069;-60
2023/02/23 14:18:01;;;;;;;43.40;19.42;;;7.90;99.90;;;;;;5031619;28;20767;-62